Thatcher, Ohio
Current Conditions -  °F | °C
As of 1:54 PM on Saturday 25 Oct 2014 (Local Time) from KRZT Reporting Station
Overcast Overcast  
Wind Chill: 64°   Ceiling: 2400
Heat Index: 64°   Visibility: 10mi
Dew Point: 52°   Wind: 10mph
Humidity: 64%   Direction: 230°SW
Pressure: 29.91"   Gusts: NA
Location:  39.5752°N, 82.907°W
Report Text: KRZT 251754Z AUTO 23009KT 10SM OVC024 18/11 A2991 RMK AO2
Loading
Personal Weather Stations






























Interactive Weather Map
Tropical Storm Tracking
New forecast layout! Learn more

10-Day Weather Forecast

Advertisements
Track Severe Weather on mobile